sensor_id;sensor_type;location;lat;lon;timestamp;temperature;humidity
2657;DHT22;1338;48.176;11.792;2022-07-06T00:01:14;16.10;1.00
2657;DHT22;1338;48.176;11.792;2022-07-06T00:03:42;15.90;1.00
2657;DHT22;1338;48.176;11.792;2022-07-06T00:06:11;15.80;1.00
2657;DHT22;1338;48.176;11.792;2022-07-06T00:08:39;15.70;1.00
2657;DHT22;1338;48.176;11.792;2022-07-06T00:11:09;15.70;1.00
2657;DHT22;1338;48.176;11.792;2022-07-06T00:13:37;15.80;1.00
2657;DHT22;1338;48.176;11.792;2022-07-06T00:16:05;15.80;1.00
2657;DHT22;1338;48.176;11.792;2022-07-06T00:18:33;15.90;1.00
2657;DHT22;1338;48.176;11.792;2022-07-06T00:21:02;15.90;1.00
2657;DHT22;1338;48.176;11.792;2022-07-06T00:23:30;16.00;1.00
2657;DHT22;1338;48.176;11.792;2022-07-06T00:25:58;16.00;1.00
2657;DHT22;1338;48.176;11.792;2022-07-06T00:28:28;16.00;1.00
2657;DHT22;1338;48.176;11.792;2022-07-06T00:30:56;16.10;1.00
2657;DHT22;1338;48.176;11.792;2022-07-06T00:33:24;16.20;1.00
2657;DHT22;1338;48.176;11.792;2022-07-06T00:35:53;16.00;1.00
2657;DHT22;1338;48.176;11.792;2022-07-06T00:38:21;15.90;1.00
2657;DHT22;1338;48.176;11.792;2022-07-06T00:40:50;15.90;1.00
2657;DHT22;1338;48.176;11.792;2022-07-06T00:43:18;15.70;1.00
2657;DHT22;1338;48.176;11.792;2022-07-06T00:45:48;15.80;1.00
2657;DHT22;1338;48.176;11.792;2022-07-06T00:48:16;15.70;1.00
2657;DHT22;1338;48.176;11.792;2022-07-06T00:50:45;15.70;1.00
2657;DHT22;1338;48.176;11.792;2022-07-06T00:53:13;15.60;1.00
2657;DHT22;1338;48.176;11.792;2022-07-06T00:55:42;15.60;1.00
2657;DHT22;1338;48.176;11.792;2022-07-06T00:58:11;15.60;1.00
2657;DHT22;1338;48.176;11.792;2022-07-06T01:00:39;15.50;1.00
2657;DHT22;1338;48.176;11.792;2022-07-06T01:03:13;15.40;1.00
2657;DHT22;1338;48.176;11.792;2022-07-06T01:05:41;15.30;1.00
2657;DHT22;1338;48.176;11.792;2022-07-06T01:08:09;15.20;1.00
2657;DHT22;1338;48.176;11.792;2022-07-06T01:10:37;15.30;1.00
2657;DHT22;1338;48.176;11.792;2022-07-06T01:13:06;15.30;1.00
2657;DHT22;1338;48.176;11.792;2022-07-06T01:15:34;15.40;1.00
2657;DHT22;1338;48.176;11.792;2022-07-06T01:20:33;15.50;1.00
2657;DHT22;1338;48.176;11.792;2022-07-06T01:23:01;15.40;1.00
2657;DHT22;1338;48.176;11.792;2022-07-06T01:25:29;15.30;1.00
2657;DHT22;1338;48.176;11.792;2022-07-06T01:27:57;15.30;1.00
2657;DHT22;1338;48.176;11.792;2022-07-06T01:30:25;15.40;1.00
2657;DHT22;1338;48.176;11.792;2022-07-06T01:32:53;15.20;1.00
2657;DHT22;1338;48.176;11.792;2022-07-06T01:35:24;15.10;1.00
2657;DHT22;1338;48.176;11.792;2022-07-06T01:37:55;15.00;1.00
2657;DHT22;1338;48.176;11.792;2022-07-06T01:40:23;14.90;1.00
2657;DHT22;1338;48.176;11.792;2022-07-06T01:42:52;14.80;15.50
2657;DHT22;1338;48.176;11.792;2022-07-06T01:45:20;14.90;27.30
2657;DHT22;1338;48.176;11.792;2022-07-06T01:47:48;15.00;24.70
2657;DHT22;1338;48.176;11.792;2022-07-06T01:50:17;14.90;64.20
2657;DHT22;1338;48.176;11.792;2022-07-06T01:52:46;14.90;99.90
2657;DHT22;1338;48.176;11.792;2022-07-06T01:55:16;15.00;99.90
2657;DHT22;1338;48.176;11.792;2022-07-06T01:57:44;15.00;99.90
2657;DHT22;1338;48.176;11.792;2022-07-06T02:00:14;14.90;99.90
2657;DHT22;1338;48.176;11.792;2022-07-06T02:02:48;14.90;99.90
2657;DHT22;1338;48.176;11.792;2022-07-06T02:05:17;14.80;99.90
2657;DHT22;1338;48.176;11.792;2022-07-06T02:07:45;14.80;99.90
2657;DHT22;1338;48.176;11.792;2022-07-06T02:10:15;14.70;99.90
2657;DHT22;1338;48.176;11.792;2022-07-06T02:12:43;14.70;99.90
2657;DHT22;1338;48.176;11.792;2022-07-06T02:15:11;14.70;99.90
2657;DHT22;1338;48.176;11.792;2022-07-06T02:17:40;14.80;99.90
2657;DHT22;1338;48.176;11.792;2022-07-06T02:20:09;14.60;99.90
2657;DHT22;1338;48.176;11.792;2022-07-06T02:22:37;14.70;99.90
2657;DHT22;1338;48.176;11.792;2022-07-06T02:25:07;14.70;99.90
2657;DHT22;1338;48.176;11.792;2022-07-06T02:27:37;14.80;99.90
2657;DHT22;1338;48.176;11.792;2022-07-06T02:30:09;14.80;99.90
2657;DHT22;1338;48.176;11.792;2022-07-06T02:32:38;14.60;99.90
2657;DHT22;1338;48.176;11.792;2022-07-06T02:35:06;14.60;99.90
2657;DHT22;1338;48.176;11.792;2022-07-06T02:37:35;14.70;99.90
2657;DHT22;1338;48.176;11.792;2022-07-06T02:40:04;14.70;99.90
2657;DHT22;1338;48.176;11.792;2022-07-06T02:42:33;14.60;99.90
2657;DHT22;1338;48.176;11.792;2022-07-06T02:45:04;14.50;99.90
2657;DHT22;1338;48.176;11.792;2022-07-06T02:47:33;14.40;99.90
2657;DHT22;1338;48.176;11.792;2022-07-06T02:50:03;14.40;99.90
2657;DHT22;1338;48.176;11.792;2022-07-06T02:52:31;14.30;99.90
2657;DHT22;1338;48.176;11.792;2022-07-06T02:55:07;14.30;99.90
2657;DHT22;1338;48.176;11.792;2022-07-06T02:57:36;14.30;99.90
2657;DHT22;1338;48.176;11.792;2022-07-06T03:00:08;14.20;99.90
2657;DHT22;1338;48.176;11.792;2022-07-06T03:02:38;14.20;99.90
2657;DHT22;1338;48.176;11.792;2022-07-06T03:05:08;14.10;99.90
2657;DHT22;1338;48.176;11.792;2022-07-06T03:07:37;14.20;99.90
2657;DHT22;1338;48.176;11.792;2022-07-06T03:10:06;14.20;99.90
2657;DHT22;1338;48.176;11.792;2022-07-06T03:12:34;14.10;99.90
2657;DHT22;1338;48.176;11.792;2022-07-06T03:15:02;14.00;99.90
2657;DHT22;1338;48.176;11.792;2022-07-06T03:17:33;14.00;99.90
2657;DHT22;1338;48.176;11.792;2022-07-06T03:20:02;14.10;99.90
2657;DHT22;1338;48.176;11.792;2022-07-06T03:22:31;14.10;99.90
2657;DHT22;1338;48.176;11.792;2022-07-06T03:25:00;14.20;99.90
2657;DHT22;1338;48.176;11.792;2022-07-06T03:27:29;14.20;99.90
2657;DHT22;1338;48.176;11.792;2022-07-06T03:29:58;14.10;99.90
2657;DHT22;1338;48.176;11.792;2022-07-06T03:32:26;14.10;99.90
2657;DHT22;1338;48.176;11.792;2022-07-06T03:34:57;14.00;99.90
2657;DHT22;1338;48.176;11.792;2022-07-06T03:37:25;14.00;99.90
2657;DHT22;1338;48.176;11.792;2022-07-06T03:39:53;14.00;99.90
2657;DHT22;1338;48.176;11.792;2022-07-06T03:42:22;14.00;99.90
2657;DHT22;1338;48.176;11.792;2022-07-06T03:44:51;14.10;99.90
2657;DHT22;1338;48.176;11.792;2022-07-06T03:47:19;14.00;99.90
2657;DHT22;1338;48.176;11.792;2022-07-06T03:49:48;14.00;99.90
2657;DHT22;1338;48.176;11.792;2022-07-06T03:52:17;14.00;99.90
2657;DHT22;1338;48.176;11.792;2022-07-06T03:54:51;14.00;99.90
2657;DHT22;1338;48.176;11.792;2022-07-06T03:57:24;14.10;99.90
2657;DHT22;1338;48.176;11.792;2022-07-06T03:59:54;14.10;99.90
2657;DHT22;1338;48.176;11.792;2022-07-06T04:02:23;14.20;99.90
2657;DHT22;1338;48.176;11.792;2022-07-06T04:04:52;14.10;99.90
2657;DHT22;1338;48.176;11.792;2022-07-06T04:07:22;14.20;99.90
2657;DHT22;1338;48.176;11.792;2022-07-06T04:09:52;14.30;99.90
2657;DHT22;1338;48.176;11.792;2022-07-06T04:12:20;14.40;99.90
2657;DHT22;1338;48.176;11.792;2022-07-06T04:14:49;14.30;99.90
2657;DHT22;1338;48.176;11.792;2022-07-06T04:17:17;14.40;99.90
2657;DHT22;1338;48.176;11.792;2022-07-06T04:20:03;14.40;99.90
2657;DHT22;1338;48.176;11.792;2022-07-06T04:22:33;14.60;99.90
2657;DHT22;1338;48.176;11.792;2022-07-06T04:25:05;14.70;99.90
2657;DHT22;1338;48.176;11.792;2022-07-06T04:27:33;14.80;99.90
2657;DHT22;1338;48.176;11.792;2022-07-06T04:30:03;15.00;99.90
2657;DHT22;1338;48.176;11.792;2022-07-06T04:32:32;15.10;99.90
2657;DHT22;1338;48.176;11.792;2022-07-06T04:35:00;15.60;99.90
2657;DHT22;1338;48.176;11.792;2022-07-06T04:37:29;15.60;99.90
2657;DHT22;1338;48.176;11.792;2022-07-06T04:39:58;15.70;99.90
2657;DHT22;1338;48.176;11.792;2022-07-06T04:42:28;15.80;99.90
2657;DHT22;1338;48.176;11.792;2022-07-06T04:44:56;15.90;18.90
2657;DHT22;1338;48.176;11.792;2022-07-06T04:47:24;16.10;1.00
2657;DHT22;1338;48.176;11.792;2022-07-06T04:49:53;16.20;1.00
2657;DHT22;1338;48.176;11.792;2022-07-06T04:52:22;16.40;1.00
2657;DHT22;1338;48.176;11.792;2022-07-06T04:54:50;16.50;1.00
2657;DHT22;1338;48.176;11.792;2022-07-06T04:57:20;16.70;1.00
2657;DHT22;1338;48.176;11.792;2022-07-06T04:59:48;16.70;1.00
2657;DHT22;1338;48.176;11.792;2022-07-06T05:02:17;16.70;1.00
2657;DHT22;1338;48.176;11.792;2022-07-06T05:04:45;16.60;1.00
2657;DHT22;1338;48.176;11.792;2022-07-06T05:07:13;16.60;1.00
2657;DHT22;1338;48.176;11.792;2022-07-06T05:09:42;16.70;1.00
2657;DHT22;1338;48.176;11.792;2022-07-06T05:12:17;16.70;1.00
2657;DHT22;1338;48.176;11.792;2022-07-06T05:14:47;16.80;1.00
2657;DHT22;1338;48.176;11.792;2022-07-06T05:17:16;16.90;1.00
2657;DHT22;1338;48.176;11.792;2022-07-06T05:19:44;16.90;1.00
2657;DHT22;1338;48.176;11.792;2022-07-06T05:22:12;16.80;1.00
2657;DHT22;1338;48.176;11.792;2022-07-06T05:24:41;16.70;1.00
2657;DHT22;1338;48.176;11.792;2022-07-06T05:27:09;16.90;1.00
2657;DHT22;1338;48.176;11.792;2022-07-06T05:29:39;17.00;1.00
2657;DHT22;1338;48.176;11.792;2022-07-06T05:32:09;17.10;1.00
2657;DHT22;1338;48.176;11.792;2022-07-06T05:34:37;17.30;1.00
2657;DHT22;1338;48.176;11.792;2022-07-06T05:37:07;17.20;1.00
2657;DHT22;1338;48.176;11.792;2022-07-06T05:39:35;17.30;1.00
2657;DHT22;1338;48.176;11.792;2022-07-06T05:42:09;17.30;1.00
2657;DHT22;1338;48.176;11.792;2022-07-06T05:44:37;17.50;1.00
2657;DHT22;1338;48.176;11.792;2022-07-06T05:47:06;17.60;1.00
2657;DHT22;1338;48.176;11.792;2022-07-06T05:49:53;17.60;1.00
2657;DHT22;1338;48.176;11.792;2022-07-06T05:52:57;17.80;1.00
2657;DHT22;1338;48.176;11.792;2022-07-06T05:55:30;17.90;1.00
2657;DHT22;1338;48.176;11.792;2022-07-06T05:58:00;18.10;1.00
2657;DHT22;1338;48.176;11.792;2022-07-06T06:00:31;18.10;1.00
2657;DHT22;1338;48.176;11.792;2022-07-06T06:03:05;18.20;1.00
2657;DHT22;1338;48.176;11.792;2022-07-06T06:05:35;18.20;1.00
2657;DHT22;1338;48.176;11.792;2022-07-06T06:08:06;18.10;1.00
2657;DHT22;1338;48.176;11.792;2022-07-06T06:10:34;18.20;1.00
2657;DHT22;1338;48.176;11.792;2022-07-06T06:13:06;18.40;1.00
2657;DHT22;1338;48.176;11.792;2022-07-06T06:15:35;18.30;1.00
2657;DHT22;1338;48.176;11.792;2022-07-06T06:18:04;18.30;1.00
2657;DHT22;1338;48.176;11.792;2022-07-06T06:20:33;18.60;1.00
2657;DHT22;1338;48.176;11.792;2022-07-06T06:23:02;18.40;1.00
2657;DHT22;1338;48.176;11.792;2022-07-06T06:25:32;18.40;1.00
2657;DHT22;1338;48.176;11.792;2022-07-06T06:28:01;18.40;1.00
2657;DHT22;1338;48.176;11.792;2022-07-06T06:30:30;18.70;1.00
2657;DHT22;1338;48.176;11.792;2022-07-06T06:33:06;18.50;1.00
2657;DHT22;1338;48.176;11.792;2022-07-06T06:35:35;18.40;1.00
2657;DHT22;1338;48.176;11.792;2022-07-06T06:38:05;18.40;1.00
2657;DHT22;1338;48.176;11.792;2022-07-06T06:40:33;18.50;1.00
2657;DHT22;1338;48.176;11.792;2022-07-06T06:43:01;18.60;1.00
2657;DHT22;1338;48.176;11.792;2022-07-06T06:45:31;18.60;1.00
2657;DHT22;1338;48.176;11.792;2022-07-06T06:47:59;18.90;1.00
2657;DHT22;1338;48.176;11.792;2022-07-06T06:50:28;18.90;1.00
2657;DHT22;1338;48.176;11.792;2022-07-06T06:52:56;18.80;1.00
2657;DHT22;1338;48.176;11.792;2022-07-06T06:55:25;18.80;1.00
2657;DHT22;1338;48.176;11.792;2022-07-06T06:57:54;19.00;1.00
2657;DHT22;1338;48.176;11.792;2022-07-06T07:00:22;19.00;1.00
2657;DHT22;1338;48.176;11.792;2022-07-06T07:02:50;19.00;1.00
2657;DHT22;1338;48.176;11.792;2022-07-06T07:05:18;19.10;1.00
2657;DHT22;1338;48.176;11.792;2022-07-06T07:07:46;19.00;1.00
2657;DHT22;1338;48.176;11.792;2022-07-06T07:10:15;19.00;1.00
2657;DHT22;1338;48.176;11.792;2022-07-06T07:12:45;19.20;1.00
2657;DHT22;1338;48.176;11.792;2022-07-06T07:15:14;19.50;1.00
2657;DHT22;1338;48.176;11.792;2022-07-06T07:17:43;19.40;1.00
2657;DHT22;1338;48.176;11.792;2022-07-06T07:20:12;19.40;1.00
2657;DHT22;1338;48.176;11.792;2022-07-06T07:22:40;19.20;1.00
2657;DHT22;1338;48.176;11.792;2022-07-06T07:25:08;19.60;1.00
2657;DHT22;1338;48.176;11.792;2022-07-06T07:27:36;19.50;1.00
2657;DHT22;1338;48.176;11.792;2022-07-06T07:30:07;19.80;1.00
2657;DHT22;1338;48.176;11.792;2022-07-06T07:32:35;19.60;1.00
2657;DHT22;1338;48.176;11.792;2022-07-06T07:35:04;19.80;1.00
2657;DHT22;1338;48.176;11.792;2022-07-06T07:37:32;19.90;1.00
2657;DHT22;1338;48.176;11.792;2022-07-06T07:40:01;19.90;1.00
2657;DHT22;1338;48.176;11.792;2022-07-06T07:42:29;19.90;1.00
2657;DHT22;1338;48.176;11.792;2022-07-06T07:44:57;19.80;1.00
2657;DHT22;1338;48.176;11.792;2022-07-06T07:47:27;19.60;1.00
2657;DHT22;1338;48.176;11.792;2022-07-06T07:49:55;19.90;1.00
2657;DHT22;1338;48.176;11.792;2022-07-06T07:52:23;20.20;1.00
2657;DHT22;1338;48.176;11.792;2022-07-06T07:54:51;20.50;1.00
2657;DHT22;1338;48.176;11.792;2022-07-06T07:57:39;20.60;1.00
2657;DHT22;1338;48.176;11.792;2022-07-06T08:00:09;20.40;1.00
2657;DHT22;1338;48.176;11.792;2022-07-06T08:02:39;20.20;1.00
2657;DHT22;1338;48.176;11.792;2022-07-06T08:05:07;20.10;1.00
2657;DHT22;1338;48.176;11.792;2022-07-06T08:07:40;20.40;1.00
2657;DHT22;1338;48.176;11.792;2022-07-06T08:10:08;20.50;1.00
2657;DHT22;1338;48.176;11.792;2022-07-06T08:12:37;20.80;1.00
2657;DHT22;1338;48.176;11.792;2022-07-06T08:15:11;20.80;1.00
2657;DHT22;1338;48.176;11.792;2022-07-06T08:17:41;20.40;1.00
2657;DHT22;1338;48.176;11.792;2022-07-06T08:20:10;20.50;1.00
2657;DHT22;1338;48.176;11.792;2022-07-06T08:22:39;20.60;1.00
2657;DHT22;1338;48.176;11.792;2022-07-06T08:25:08;20.60;1.00
2657;DHT22;1338;48.176;11.792;2022-07-06T08:27:36;20.90;1.00
2657;DHT22;1338;48.176;11.792;2022-07-06T08:30:05;20.70;1.00
2657;DHT22;1338;48.176;11.792;2022-07-06T08:32:37;21.10;1.00
2657;DHT22;1338;48.176;11.792;2022-07-06T08:35:27;21.10;1.00
2657;DHT22;1338;48.176;11.792;2022-07-06T08:37:55;21.30;1.00
2657;DHT22;1338;48.176;11.792;2022-07-06T08:40:23;21.30;1.00
2657;DHT22;1338;48.176;11.792;2022-07-06T08:42:54;21.30;1.00
2657;DHT22;1338;48.176;11.792;2022-07-06T08:45:22;21.20;1.00
2657;DHT22;1338;48.176;11.792;2022-07-06T08:47:54;21.40;1.00
2657;DHT22;1338;48.176;11.792;2022-07-06T08:50:23;21.70;1.00
2657;DHT22;1338;48.176;11.792;2022-07-06T08:52:54;21.60;1.00
2657;DHT22;1338;48.176;11.792;2022-07-06T08:55:22;21.80;1.00
2657;DHT22;1338;48.176;11.792;2022-07-06T08:57:53;21.90;1.00
2657;DHT22;1338;48.176;11.792;2022-07-06T09:00:22;21.90;1.00
2657;DHT22;1338;48.176;11.792;2022-07-06T09:02:52;21.30;1.00
2657;DHT22;1338;48.176;11.792;2022-07-06T09:05:24;21.60;1.00
2657;DHT22;1338;48.176;11.792;2022-07-06T09:07:54;22.00;1.00
2657;DHT22;1338;48.176;11.792;2022-07-06T09:10:26;22.10;1.00
2657;DHT22;1338;48.176;11.792;2022-07-06T09:13:02;21.50;1.00
2657;DHT22;1338;48.176;11.792;2022-07-06T09:15:32;21.60;1.00
2657;DHT22;1338;48.176;11.792;2022-07-06T09:18:01;21.80;1.00
2657;DHT22;1338;48.176;11.792;2022-07-06T09:20:30;21.80;1.00
2657;DHT22;1338;48.176;11.792;2022-07-06T09:23:01;21.70;1.00
2657;DHT22;1338;48.176;11.792;2022-07-06T09:25:30;22.40;1.00
2657;DHT22;1338;48.176;11.792;2022-07-06T09:27:59;22.50;1.00
2657;DHT22;1338;48.176;11.792;2022-07-06T09:30:28;21.90;1.00
2657;DHT22;1338;48.176;11.792;2022-07-06T09:32:57;22.40;1.00
2657;DHT22;1338;48.176;11.792;2022-07-06T09:35:28;22.50;1.00
2657;DHT22;1338;48.176;11.792;2022-07-06T09:38:05;22.70;1.00
2657;DHT22;1338;48.176;11.792;2022-07-06T09:40:35;22.70;1.00
2657;DHT22;1338;48.176;11.792;2022-07-06T09:43:08;22.80;1.00
2657;DHT22;1338;48.176;11.792;2022-07-06T09:45:38;23.00;1.00
2657;DHT22;1338;48.176;11.792;2022-07-06T09:48:08;23.20;1.00
2657;DHT22;1338;48.176;11.792;2022-07-06T09:50:41;23.10;1.00
2657;DHT22;1338;48.176;11.792;2022-07-06T09:53:13;23.20;1.00
2657;DHT22;1338;48.176;11.792;2022-07-06T09:55:46;23.50;1.00
2657;DHT22;1338;48.176;11.792;2022-07-06T09:58:16;23.60;1.00
2657;DHT22;1338;48.176;11.792;2022-07-06T10:00:58;23.60;1.00
2657;DHT22;1338;48.176;11.792;2022-07-06T10:03:27;23.60;1.00
2657;DHT22;1338;48.176;11.792;2022-07-06T10:05:55;24.00;1.00
2657;DHT22;1338;48.176;11.792;2022-07-06T10:08:26;23.80;1.00
2657;DHT22;1338;48.176;11.792;2022-07-06T10:10:56;23.70;1.00
2657;DHT22;1338;48.176;11.792;2022-07-06T10:13:25;23.90;1.00
2657;DHT22;1338;48.176;11.792;2022-07-06T10:15:54;24.00;1.00
2657;DHT22;1338;48.176;11.792;2022-07-06T10:18:24;23.50;1.00
2657;DHT22;1338;48.176;11.792;2022-07-06T10:20:54;23.40;1.00
2657;DHT22;1338;48.176;11.792;2022-07-06T10:23:23;23.90;1.00
2657;DHT22;1338;48.176;11.792;2022-07-06T10:25:55;24.10;1.00
2657;DHT22;1338;48.176;11.792;2022-07-06T10:28:25;23.60;1.00
2657;DHT22;1338;48.176;11.792;2022-07-06T10:30:54;23.90;1.00
2657;DHT22;1338;48.176;11.792;2022-07-06T10:33:23;23.30;1.00
2657;DHT22;1338;48.176;11.792;2022-07-06T10:35:54;23.50;1.00
2657;DHT22;1338;48.176;11.792;2022-07-06T10:38:31;24.00;1.00
2657;DHT22;1338;48.176;11.792;2022-07-06T10:41:04;24.50;1.00
2657;DHT22;1338;48.176;11.792;2022-07-06T10:43:32;23.40;1.00
2657;DHT22;1338;48.176;11.792;2022-07-06T10:46:06;23.20;1.00
2657;DHT22;1338;48.176;11.792;2022-07-06T10:48:35;24.10;1.00
2657;DHT22;1338;48.176;11.792;2022-07-06T10:51:03;24.40;1.00
2657;DHT22;1338;48.176;11.792;2022-07-06T10:53:33;25.10;1.00
2657;DHT22;1338;48.176;11.792;2022-07-06T10:56:05;24.70;99.90
2657;DHT22;1338;48.176;11.792;2022-07-06T10:58:42;24.30;1.00
2657;DHT22;1338;48.176;11.792;2022-07-06T11:01:14;24.60;99.90
2657;DHT22;1338;48.176;11.792;2022-07-06T11:03:44;24.90;99.90
2657;DHT22;1338;48.176;11.792;2022-07-06T11:06:15;25.60;99.90
2657;DHT22;1338;48.176;11.792;2022-07-06T11:08:55;23.70;99.90
2657;DHT22;1338;48.176;11.792;2022-07-06T11:11:26;23.80;1.00
2657;DHT22;1338;48.176;11.792;2022-07-06T11:13:56;23.50;99.90
2657;DHT22;1338;48.176;11.792;2022-07-06T11:16:27;23.50;1.00
2657;DHT22;1338;48.176;11.792;2022-07-06T11:19:02;23.30;99.90
2657;DHT22;1338;48.176;11.792;2022-07-06T11:21:37;23.30;1.00
2657;DHT22;1338;48.176;11.792;2022-07-06T11:24:07;23.30;99.90
2657;DHT22;1338;48.176;11.792;2022-07-06T11:26:37;24.30;99.90
2657;DHT22;1338;48.176;11.792;2022-07-06T11:29:08;25.30;99.90
2657;DHT22;1338;48.176;11.792;2022-07-06T11:31:39;25.40;99.90
2657;DHT22;1338;48.176;11.792;2022-07-06T11:34:09;25.40;99.90
2657;DHT22;1338;48.176;11.792;2022-07-06T11:36:38;25.30;99.90
2657;DHT22;1338;48.176;11.792;2022-07-06T11:39:12;25.00;99.90
2657;DHT22;1338;48.176;11.792;2022-07-06T11:41:42;24.80;99.90
2657;DHT22;1338;48.176;11.792;2022-07-06T11:44:17;24.40;99.90
2657;DHT22;1338;48.176;11.792;2022-07-06T11:46:46;24.30;99.90
2657;DHT22;1338;48.176;11.792;2022-07-06T11:49:14;25.20;99.90
2657;DHT22;1338;48.176;11.792;2022-07-06T11:51:44;25.30;99.90
2657;DHT22;1338;48.176;11.792;2022-07-06T11:54:14;24.90;99.90
2657;DHT22;1338;48.176;11.792;2022-07-06T11:56:48;24.30;99.90
2657;DHT22;1338;48.176;11.792;2022-07-06T11:59:20;24.20;99.90
2657;DHT22;1338;48.176;11.792;2022-07-06T12:01:48;25.20;99.90
2657;DHT22;1338;48.176;11.792;2022-07-06T12:04:17;24.50;99.90
2657;DHT22;1338;48.176;11.792;2022-07-06T12:06:45;25.30;99.90
2657;DHT22;1338;48.176;11.792;2022-07-06T12:09:13;25.20;99.90
2657;DHT22;1338;48.176;11.792;2022-07-06T12:11:45;24.80;99.90
2657;DHT22;1338;48.176;11.792;2022-07-06T12:14:17;25.50;99.90
2657;DHT22;1338;48.176;11.792;2022-07-06T12:16:47;25.40;99.90
2657;DHT22;1338;48.176;11.792;2022-07-06T12:19:16;25.90;99.90
2657;DHT22;1338;48.176;11.792;2022-07-06T12:21:47;26.00;99.90
2657;DHT22;1338;48.176;11.792;2022-07-06T12:24:20;25.60;99.90
2657;DHT22;1338;48.176;11.792;2022-07-06T12:26:49;25.40;99.90
2657;DHT22;1338;48.176;11.792;2022-07-06T12:29:20;25.60;99.90
2657;DHT22;1338;48.176;11.792;2022-07-06T12:31:50;25.40;99.90
2657;DHT22;1338;48.176;11.792;2022-07-06T12:34:20;24.90;99.90
2657;DHT22;1338;48.176;11.792;2022-07-06T12:36:50;25.40;99.90
2657;DHT22;1338;48.176;11.792;2022-07-06T12:39:20;26.20;99.90
2657;DHT22;1338;48.176;11.792;2022-07-06T12:41:49;26.30;99.90
2657;DHT22;1338;48.176;11.792;2022-07-06T12:44:22;27.00;99.90
2657;DHT22;1338;48.176;11.792;2022-07-06T12:46:51;27.20;99.90
2657;DHT22;1338;48.176;11.792;2022-07-06T12:49:21;25.20;99.90
2657;DHT22;1338;48.176;11.792;2022-07-06T12:52:00;25.40;99.90
2657;DHT22;1338;48.176;11.792;2022-07-06T12:54:30;26.30;99.90
2657;DHT22;1338;48.176;11.792;2022-07-06T12:57:07;26.70;99.90
2657;DHT22;1338;48.176;11.792;2022-07-06T12:59:39;26.80;99.90
2657;DHT22;1338;48.176;11.792;2022-07-06T13:02:10;26.70;99.90
2657;DHT22;1338;48.176;11.792;2022-07-06T13:04:54;25.10;99.90
2657;DHT22;1338;48.176;11.792;2022-07-06T13:07:24;25.70;99.90
2657;DHT22;1338;48.176;11.792;2022-07-06T13:09:52;26.30;99.90
2657;DHT22;1338;48.176;11.792;2022-07-06T13:12:22;27.10;99.90
2657;DHT22;1338;48.176;11.792;2022-07-06T13:14:51;26.90;99.90
2657;DHT22;1338;48.176;11.792;2022-07-06T13:17:20;26.70;99.90
2657;DHT22;1338;48.176;11.792;2022-07-06T13:19:48;25.50;99.90
2657;DHT22;1338;48.176;11.792;2022-07-06T13:22:17;25.90;99.90
2657;DHT22;1338;48.176;11.792;2022-07-06T13:24:45;26.60;99.90
2657;DHT22;1338;48.176;11.792;2022-07-06T13:27:13;25.70;99.90
2657;DHT22;1338;48.176;11.792;2022-07-06T13:29:42;27.80;99.90
2657;DHT22;1338;48.176;11.792;2022-07-06T13:32:11;27.10;99.90
2657;DHT22;1338;48.176;11.792;2022-07-06T13:34:40;26.80;99.90
2657;DHT22;1338;48.176;11.792;2022-07-06T13:37:08;27.30;99.90
2657;DHT22;1338;48.176;11.792;2022-07-06T13:39:36;27.50;99.90
2657;DHT22;1338;48.176;11.792;2022-07-06T13:42:05;25.90;99.90
2657;DHT22;1338;48.176;11.792;2022-07-06T13:44:34;25.10;99.90
2657;DHT22;1338;48.176;11.792;2022-07-06T13:47:03;24.90;99.90
2657;DHT22;1338;48.176;11.792;2022-07-06T13:49:33;26.00;99.90
2657;DHT22;1338;48.176;11.792;2022-07-06T13:52:01;26.40;99.90
2657;DHT22;1338;48.176;11.792;2022-07-06T13:54:31;26.70;99.90
2657;DHT22;1338;48.176;11.792;2022-07-06T13:57:02;27.30;99.90
2657;DHT22;1338;48.176;11.792;2022-07-06T13:59:31;26.90;99.90
2657;DHT22;1338;48.176;11.792;2022-07-06T14:01:59;27.40;99.90
2657;DHT22;1338;48.176;11.792;2022-07-06T14:04:28;27.80;99.90
2657;DHT22;1338;48.176;11.792;2022-07-06T14:06:58;28.40;99.90
2657;DHT22;1338;48.176;11.792;2022-07-06T14:09:26;27.20;99.90
2657;DHT22;1338;48.176;11.792;2022-07-06T14:11:54;26.30;99.90
2657;DHT22;1338;48.176;11.792;2022-07-06T14:14:22;25.20;99.90
2657;DHT22;1338;48.176;11.792;2022-07-06T14:16:51;25.90;99.90
2657;DHT22;1338;48.176;11.792;2022-07-06T14:19:20;26.40;99.90
2657;DHT22;1338;48.176;11.792;2022-07-06T14:21:49;26.70;99.90
2657;DHT22;1338;48.176;11.792;2022-07-06T14:24:18;27.50;99.90
2657;DHT22;1338;48.176;11.792;2022-07-06T14:26:47;27.70;99.90
2657;DHT22;1338;48.176;11.792;2022-07-06T14:29:15;28.60;99.90
2657;DHT22;1338;48.176;11.792;2022-07-06T14:31:43;28.40;99.90
2657;DHT22;1338;48.176;11.792;2022-07-06T14:34:11;27.50;99.90
2657;DHT22;1338;48.176;11.792;2022-07-06T14:36:40;27.50;99.90
2657;DHT22;1338;48.176;11.792;2022-07-06T14:39:08;25.70;99.90
2657;DHT22;1338;48.176;11.792;2022-07-06T14:41:39;27.20;99.90
2657;DHT22;1338;48.176;11.792;2022-07-06T14:44:07;28.30;99.90
2657;DHT22;1338;48.176;11.792;2022-07-06T14:46:36;28.10;99.90
2657;DHT22;1338;48.176;11.792;2022-07-06T14:49:04;28.40;99.90
2657;DHT22;1338;48.176;11.792;2022-07-06T14:51:32;26.70;99.90
2657;DHT22;1338;48.176;11.792;2022-07-06T14:54:00;27.10;99.90
2657;DHT22;1338;48.176;11.792;2022-07-06T14:56:29;27.30;99.90
2657;DHT22;1338;48.176;11.792;2022-07-06T14:58:59;27.60;99.90
2657;DHT22;1338;48.176;11.792;2022-07-06T15:01:47;26.40;99.90
2657;DHT22;1338;48.176;11.792;2022-07-06T15:04:15;26.90;99.90
2657;DHT22;1338;48.176;11.792;2022-07-06T15:06:44;26.90;99.90
2657;DHT22;1338;48.176;11.792;2022-07-06T15:09:22;28.20;99.90
2657;DHT22;1338;48.176;11.792;2022-07-06T15:11:51;28.10;99.90
2657;DHT22;1338;48.176;11.792;2022-07-06T15:14:21;26.60;99.90
2657;DHT22;1338;48.176;11.792;2022-07-06T15:16:50;26.30;99.90
2657;DHT22;1338;48.176;11.792;2022-07-06T15:19:19;27.20;99.90
2657;DHT22;1338;48.176;11.792;2022-07-06T15:21:48;27.80;99.90
2657;DHT22;1338;48.176;11.792;2022-07-06T15:24:16;27.70;99.90
2657;DHT22;1338;48.176;11.792;2022-07-06T15:26:45;27.60;99.90
2657;DHT22;1338;48.176;11.792;2022-07-06T15:29:13;28.20;99.90
2657;DHT22;1338;48.176;11.792;2022-07-06T15:31:43;26.90;99.90
2657;DHT22;1338;48.176;11.792;2022-07-06T15:34:11;26.40;99.90
2657;DHT22;1338;48.176;11.792;2022-07-06T15:36:40;27.30;99.90
2657;DHT22;1338;48.176;11.792;2022-07-06T15:39:08;26.60;99.90
2657;DHT22;1338;48.176;11.792;2022-07-06T15:41:36;27.10;99.90
2657;DHT22;1338;48.176;11.792;2022-07-06T15:44:04;28.10;99.90
2657;DHT22;1338;48.176;11.792;2022-07-06T15:46:33;27.80;99.90
2657;DHT22;1338;48.176;11.792;2022-07-06T15:49:03;27.30;99.90
2657;DHT22;1338;48.176;11.792;2022-07-06T15:51:31;27.20;99.90
2657;DHT22;1338;48.176;11.792;2022-07-06T15:54:01;27.10;99.90
2657;DHT22;1338;48.176;11.792;2022-07-06T15:56:30;27.70;99.90
2657;DHT22;1338;48.176;11.792;2022-07-06T15:58:58;26.30;99.90
2657;DHT22;1338;48.176;11.792;2022-07-06T16:01:26;26.90;99.90
2657;DHT22;1338;48.176;11.792;2022-07-06T16:03:55;26.40;99.90
2657;DHT22;1338;48.176;11.792;2022-07-06T16:06:24;26.60;99.90
2657;DHT22;1338;48.176;11.792;2022-07-06T16:08:53;27.60;99.90
2657;DHT22;1338;48.176;11.792;2022-07-06T16:11:21;27.90;99.90
2657;DHT22;1338;48.176;11.792;2022-07-06T16:13:49;28.00;99.90